Tim S. Dool — VGPY — position and weather

sailwx.info

Track history (hours):
 
Tides and Currents Weather Stations Pressure Air Temp Water Temp Dewpoint Dewpoint Depression Visibility Wind Speed Wind Dir Waves Ship Positions

Tim S. Dool

Last reported at 2016-May-24 13:00 UTC. Time now 2016-May-25 07:20 UTC.
Position N 42°54' W 082°18'.

Length 223 m; draft 8.1 m.

Type: Cargo ship. MMSI: 316001696.

Wind from 200 at 6 knots

Waves 0.5 meters (2 feet), 2 second period

Barometer 1013.0 mb
Air temperature 18.0 ° C
Visibility: greater than 10.8 NM

Date/timePositionNaut miles runAvg speedWind from/ knotsBaromVisibWave heightAir tempDewpointWater temp
2016-May-24 13:00N 42°54' W 082°18'108 5.8 200 / 61013.010.8 0.518.0
2016-May-23 18:20N 42°34' W 079°53'45 5.7
2016-May-23 10:25N 43°07' W 079°12'2 0.7
2016-May-23 07:27N 43°10' W 079°12'2 2.4
2016-May-23 06:34N 43°12' W 079°12'2 1.5
2016-May-23 05:34N 43°13' W 079°13'1 0.8
2016-May-23 04:34N 43°14' W 079°13'12 0.5
2016-May-22 03:24N 43°17' W 079°29'1112.6
2016-May-22 02:32N 43°15' W 079°14'3 2.8
2016-May-22 01:34N 43°13' W 079°13'2 1.5
2016-May-22 00:34N 43°12' W 079°12'2 2.2
2016-May-21 23:32N 43°09' W 079°12'1 0.8
2016-May-21 22:04N 43°08' W 079°12'0 0.2
2016-May-21 20:16N 43°08' W 079°12'36 4.4
2016-May-21 12:00N 42°36' W 079°36'14812.3 140 / 121013.010.8 0.516.0
2016-May-21 00:00N 41°54' W 082°48'104 8.7 080 / 101014.010.8 1.016.0
2016-May-20 12:00N 43°36' W 082°18'15112.8 270 / 21020.010.8 11.0
2016-May-20 00:13N 45°53' W 083°48'1111.1
2016-May-19 23:12N 46°03' W 083°56'78 8.0
2016-May-19 13:25N 46°55' W 085°20'6948.6
2016-May-19 12:00N 47°06' W 087°00'187 9.5 160 / 51018.010.8 0.5 7.0
2016-May-18 16:20N 46°55' W 091°34'1012.9
2016-May-18 15:33N 46°49' W 091°46'1212.1
2016-May-18 14:33N 46°42' W 092°01'0 0.5
2016-May-18 13:32N 46°42' W 092°01'0 0.0
2016-May-18 12:33N 46°42' W 092°01'0 0.0
2016-May-18 11:33N 46°42' W 092°01'0 0.0
2016-May-18 10:33N 46°42' W 092°01'0 0.0
2016-May-18 09:33N 46°42' W 092°01'0 0.0
2016-May-18 08:33N 46°42' W 092°01'0 0.0
2016-May-18 07:33N 46°42' W 092°01'0 0.0
2016-May-18 06:24N 46°42' W 092°01'0 0.0
2016-May-18 05:33N 46°42' W 092°01'0 0.0
2016-May-18 04:24N 46°42' W 092°01'0 0.0
2016-May-18 03:27N 46°42' W 092°01'0 0.0
2016-May-18 02:27N 46°42' W 092°01'0 0.0
2016-May-18 01:27N 46°42' W 092°01'1 0.8
2016-May-18 00:30N 46°43' W 092°01'5 5.0
2016-May-17 23:33N 46°45' W 091°55'1 0.6
2016-May-17 22:24N 46°45' W 091°54'0 0.0
2016-May-17 21:27N 46°45' W 091°54'0 0.0
2016-May-17 20:27N 46°45' W 091°54'0 0.0
2016-May-17 19:24N 46°45' W 091°54'0 0.1
2016-May-17 18:30N 46°45' W 091°54'0 0.1
2016-May-17 17:30N 46°45' W 091°54'0 0.0
2016-May-17 16:30N 46°45' W 091°54'0 0.0
2016-May-17 15:33N 46°45' W 091°54'0 0.1
2016-May-17 14:33N 46°45' W 091°54'3 5.4
2016-May-17 14:00N 46°42' W 091°54'3 7.0 190 / 41023.010.8 0.5 9.0
2016-May-17 13:33N 46°45' W 091°53'0 0.2
2016-May-17 12:33N 46°45' W 091°53'3 5.1
2016-May-17 12:00N 46°42' W 091°54'3 6.6 230 / 31022.010.8 0.5 5.0
2016-May-17 11:33N 46°45' W 091°54'0 0.0
2016-May-17 10:33N 46°45' W 091°54'0 0.0
2016-May-17 09:33N 46°45' W 091°54'0 0.0
2016-May-17 08:24N 46°45' W 091°54'0 0.0
2016-May-17 07:27N 46°45' W 091°54'0 0.0
2016-May-17 06:27N 46°45' W 091°54'0 0.0
2016-May-17 05:33N 46°45' W 091°54'3 3.2
2016-May-17 04:33N 46°43' W 091°58'5 4.8
2016-May-17 03:33N 46°44' W 092°05'1 1.1
2016-May-17 02:33N 46°45' W 092°06'0 0.0
2016-May-17 01:33N 46°45' W 092°06'0 0.0
2016-May-17 00:33N 46°45' W 092°06'0 0.0
2016-May-16 23:33N 46°45' W 092°06'0 0.0
2016-May-16 22:33N 46°45' W 092°06'0 0.0
2016-May-16 21:33N 46°45' W 092°06'0 0.0
2016-May-16 20:33N 46°45' W 092°06'0 0.0
2016-May-16 19:33N 46°45' W 092°06'0 0.0
2016-May-16 18:33N 46°45' W 092°06'0 0.0
2016-May-16 17:33N 46°45' W 092°06'0 0.0
2016-May-16 16:33N 46°45' W 092°06'0 0.0
2016-May-16 15:33N 46°45' W 092°06'0 0.0
2016-May-16 14:33N 46°45' W 092°06'0 0.0
2016-May-16 13:33N 46°45' W 092°06'3 5.1
2016-May-16 13:00N 46°48' W 092°06'3 6.5 080 / 21013.010.8 9.5
2016-May-16 12:33N 46°45' W 092°06'0 0.0
2016-May-16 11:33N 46°45' W 092°06'0 0.0
2016-May-16 10:33N 46°45' W 092°06'0 0.0
2016-May-16 09:33N 46°45' W 092°06'0 0.0
2016-May-16 08:33N 46°45' W 092°06'0 0.0
2016-May-16 07:33N 46°45' W 092°06'0 0.0
2016-May-16 06:33N 46°45' W 092°06'0 0.0
2016-May-16 05:33N 46°45' W 092°06'0 0.0
2016-May-16 04:33N 46°45' W 092°06'0 0.0
2016-May-16 03:33N 46°45' W 092°06'0 0.0
2016-May-16 02:33N 46°45' W 092°06'0 0.0
2016-May-16 01:33N 46°45' W 092°06'0 0.0
2016-May-16 00:33N 46°45' W 092°06'0 0.0
2016-May-15 23:33N 46°45' W 092°06'0 0.0
2016-May-15 22:33N 46°45' W 092°06'0 0.0
2016-May-15 21:33N 46°45' W 092°06'0 0.0
2016-May-15 20:33N 46°45' W 092°06'0 0.0
2016-May-15 19:33N 46°45' W 092°06'0 0.0
2016-May-15 18:33N 46°45' W 092°06'0 0.0
2016-May-15 17:33N 46°45' W 092°06'0 0.0
2016-May-15 16:33N 46°45' W 092°06'0 0.0
2016-May-15 15:33N 46°45' W 092°06'0 0.0
2016-May-15 14:34N 46°45' W 092°06'0 0.0
2016-May-15 13:33N 46°45' W 092°06'0 0.0
2016-May-15 12:33N 46°45' W 092°06'0 0.0
2016-May-15 11:33N 46°45' W 092°06'0 0.0
2016-May-15 10:33N 46°45' W 092°06'0 0.0
2016-May-15 09:33N 46°45' W 092°06'0 0.0
2016-May-15 08:33N 46°45' W 092°06'0 0.0
2016-May-15 07:33N 46°45' W 092°06'0 0.0
2016-May-15 06:33N 46°45' W 092°06'0 0.0
2016-May-15 05:33N 46°45' W 092°06'0 0.0
2016-May-15 04:33N 46°45' W 092°06'0 0.0
2016-May-15 03:33N 46°45' W 092°06'0 0.0
2016-May-15 02:33N 46°45' W 092°06'0 0.0
2016-May-15 01:33N 46°45' W 092°06'0 0.0
2016-May-15 00:33N 46°45' W 092°06'0 0.0
2016-May-14 23:33N 46°45' W 092°06'0 0.0
2016-May-14 22:33N 46°45' W 092°06'0 0.0
2016-May-14 21:34N 46°45' W 092°06'0 0.0
2016-May-14 20:33N 46°45' W 092°06'0 0.0
2016-May-14 19:33N 46°45' W 092°06'0 0.0
2016-May-14 18:33N 46°45' W 092°06'0 0.0
2016-May-14 17:33N 46°45' W 092°06'0 0.0
2016-May-14 16:33N 46°45' W 092°06'0 0.0
2016-May-14 15:32N 46°45' W 092°06'0 0.0
2016-May-14 14:33N 46°45' W 092°06'0 0.0
2016-May-14 13:33N 46°45' W 092°06'  
Track history (hours):
 
Tides and Currents Weather Stations Pressure Air Temp Water Temp Dewpoint Dewpoint Depression Visibility Wind Speed Wind Dir Waves Ship Positions

Tim S. Dool

Last reported at 2016-May-24 13:00 UTC. Time now 2016-May-25 07:20 UTC.
Position N 42°54' W 082°18'.

Length 223 m; draft 8.1 m.

Type: Cargo ship. MMSI: 316001696.

Wind from 200 at 6 knots

Waves 0.5 meters (2 feet), 2 second period

Barometer 1013.0 mb
Air temperature 18.0 ° C
Visibility: greater than 10.8 NM

Date/timePositionNaut miles runAvg speedWind from/ knotsBaromVisibWave heightAir tempDewpointWater temp
2016-May-24 13:00N 42°54' W 082°18'108 5.8 200 / 61013.010.8 0.518.0
2016-May-23 18:20N 42°34' W 079°53'45 5.7
2016-May-23 10:25N 43°07' W 079°12'2 0.7
2016-May-23 07:27N 43°10' W 079°12'2 2.4
2016-May-23 06:34N 43°12' W 079°12'2 1.5
2016-May-23 05:34N 43°13' W 079°13'1 0.8
2016-May-23 04:34N 43°14' W 079°13'12 0.5
2016-May-22 03:24N 43°17' W 079°29'1112.6
2016-May-22 02:32N 43°15' W 079°14'3 2.8
2016-May-22 01:34N 43°13' W 079°13'2 1.5
2016-May-22 00:34N 43°12' W 079°12'2 2.2
2016-May-21 23:32N 43°09' W 079°12'1 0.8
2016-May-21 22:04N 43°08' W 079°12'0 0.2
2016-May-21 20:16N 43°08' W 079°12'36 4.4
2016-May-21 12:00N 42°36' W 079°36'14812.3 140 / 121013.010.8 0.516.0
2016-May-21 00:00N 41°54' W 082°48'104 8.7 080 / 101014.010.8 1.016.0
2016-May-20 12:00N 43°36' W 082°18'15112.8 270 / 21020.010.8 11.0
2016-May-20 00:13N 45°53' W 083°48'1111.1
2016-May-19 23:12N 46°03' W 083°56'78 8.0
2016-May-19 13:25N 46°55' W 085°20'6948.6
2016-May-19 12:00N 47°06' W 087°00'187 9.5 160 / 51018.010.8 0.5 7.0
2016-May-18 16:20N 46°55' W 091°34'1012.9
2016-May-18 15:33N 46°49' W 091°46'1212.1
2016-May-18 14:33N 46°42' W 092°01'0 0.5
2016-May-18 13:32N 46°42' W 092°01'0 0.0
2016-May-18 12:33N 46°42' W 092°01'0 0.0
2016-May-18 11:33N 46°42' W 092°01'0 0.0
2016-May-18 10:33N 46°42' W 092°01'0 0.0
2016-May-18 09:33N 46°42' W 092°01'0 0.0
2016-May-18 08:33N 46°42' W 092°01'0 0.0
2016-May-18 07:33N 46°42' W 092°01'0 0.0
2016-May-18 06:24N 46°42' W 092°01'0 0.0
2016-May-18 05:33N 46°42' W 092°01'0 0.0
2016-May-18 04:24N 46°42' W 092°01'0 0.0
2016-May-18 03:27N 46°42' W 092°01'0 0.0
2016-May-18 02:27N 46°42' W 092°01'0 0.0
2016-May-18 01:27N 46°42' W 092°01'1 0.8
2016-May-18 00:30N 46°43' W 092°01'5 5.0
2016-May-17 23:33N 46°45' W 091°55'1 0.6
2016-May-17 22:24N 46°45' W 091°54'0 0.0
2016-May-17 21:27N 46°45' W 091°54'0 0.0
2016-May-17 20:27N 46°45' W 091°54'0 0.0
2016-May-17 19:24N 46°45' W 091°54'0 0.1
2016-May-17 18:30N 46°45' W 091°54'0 0.1
2016-May-17 17:30N 46°45' W 091°54'0 0.0
2016-May-17 16:30N 46°45' W 091°54'0 0.0
2016-May-17 15:33N 46°45' W 091°54'0 0.1
2016-May-17 14:33N 46°45' W 091°54'3 5.4
2016-May-17 14:00N 46°42' W 091°54'3 7.0 190 / 41023.010.8 0.5 9.0
2016-May-17 13:33N 46°45' W 091°53'0 0.2
2016-May-17 12:33N 46°45' W 091°53'3 5.1
2016-May-17 12:00N 46°42' W 091°54'3 6.6 230 / 31022.010.8 0.5 5.0
2016-May-17 11:33N 46°45' W 091°54'0 0.0
2016-May-17 10:33N 46°45' W 091°54'0 0.0
2016-May-17 09:33N 46°45' W 091°54'0 0.0
2016-May-17 08:24N 46°45' W 091°54'0 0.0
2016-May-17 07:27N 46°45' W 091°54'0 0.0
2016-May-17 06:27N 46°45' W 091°54'0 0.0
2016-May-17 05:33N 46°45' W 091°54'3 3.2
2016-May-17 04:33N 46°43' W 091°58'5 4.8
2016-May-17 03:33N 46°44' W 092°05'1 1.1
2016-May-17 02:33N 46°45' W 092°06'0 0.0
2016-May-17 01:33N 46°45' W 092°06'0 0.0
2016-May-17 00:33N 46°45' W 092°06'0 0.0
2016-May-16 23:33N 46°45' W 092°06'0 0.0
2016-May-16 22:33N 46°45' W 092°06'0 0.0
2016-May-16 21:33N 46°45' W 092°06'0 0.0
2016-May-16 20:33N 46°45' W 092°06'0 0.0
2016-May-16 19:33N 46°45' W 092°06'0 0.0
2016-May-16 18:33N 46°45' W 092°06'0 0.0
2016-May-16 17:33N 46°45' W 092°06'0 0.0
2016-May-16 16:33N 46°45' W 092°06'0 0.0
2016-May-16 15:33N 46°45' W 092°06'0 0.0
2016-May-16 14:33N 46°45' W 092°06'0 0.0
2016-May-16 13:33N 46°45' W 092°06'3 5.1
2016-May-16 13:00N 46°48' W 092°06'3 6.5 080 / 21013.010.8 9.5
2016-May-16 12:33N 46°45' W 092°06'0 0.0
2016-May-16 11:33N 46°45' W 092°06'0 0.0
2016-May-16 10:33N 46°45' W 092°06'0 0.0
2016-May-16 09:33N 46°45' W 092°06'0 0.0
2016-May-16 08:33N 46°45' W 092°06'0 0.0
2016-May-16 07:33N 46°45' W 092°06'0 0.0
2016-May-16 06:33N 46°45' W 092°06'0 0.0
2016-May-16 05:33N 46°45' W 092°06'0 0.0
2016-May-16 04:33N 46°45' W 092°06'0 0.0
2016-May-16 03:33N 46°45' W 092°06'0 0.0
2016-May-16 02:33N 46°45' W 092°06'0 0.0
2016-May-16 01:33N 46°45' W 092°06'0 0.0
2016-May-16 00:33N 46°45' W 092°06'0 0.0
2016-May-15 23:33N 46°45' W 092°06'0 0.0
2016-May-15 22:33N 46°45' W 092°06'0 0.0
2016-May-15 21:33N 46°45' W 092°06'0 0.0
2016-May-15 20:33N 46°45' W 092°06'0 0.0
2016-May-15 19:33N 46°45' W 092°06'0 0.0
2016-May-15 18:33N 46°45' W 092°06'0 0.0
2016-May-15 17:33N 46°45' W 092°06'0 0.0
2016-May-15 16:33N 46°45' W 092°06'0 0.0
2016-May-15 15:33N 46°45' W 092°06'0 0.0
2016-May-15 14:34N 46°45' W 092°06'0 0.0
2016-May-15 13:33N 46°45' W 092°06'0 0.0
2016-May-15 12:33N 46°45' W 092°06'0 0.0
2016-May-15 11:33N 46°45' W 092°06'0 0.0
2016-May-15 10:33N 46°45' W 092°06'0 0.0
2016-May-15 09:33N 46°45' W 092°06'0 0.0
2016-May-15 08:33N 46°45' W 092°06'0 0.0
2016-May-15 07:33N 46°45' W 092°06'0 0.0
2016-May-15 06:33N 46°45' W 092°06'0 0.0
2016-May-15 05:33N 46°45' W 092°06'0 0.0
2016-May-15 04:33N 46°45' W 092°06'0 0.0
2016-May-15 03:33N 46°45' W 092°06'0 0.0
2016-May-15 02:33N 46°45' W 092°06'0 0.0
2016-May-15 01:33N 46°45' W 092°06'0 0.0
2016-May-15 00:33N 46°45' W 092°06'0 0.0
2016-May-14 23:33N 46°45' W 092°06'0 0.0
2016-May-14 22:33N 46°45' W 092°06'0 0.0
2016-May-14 21:34N 46°45' W 092°06'0 0.0
2016-May-14 20:33N 46°45' W 092°06'0 0.0
2016-May-14 19:33N 46°45' W 092°06'0 0.0
2016-May-14 18:33N 46°45' W 092°06'0 0.0
2016-May-14 17:33N 46°45' W 092°06'0 0.0
2016-May-14 16:33N 46°45' W 092°06'0 0.0
2016-May-14 15:32N 46°45' W 092°06'0 0.0
2016-May-14 14:33N 46°45' W 092°06'0 0.0
2016-May-14 13:33N 46°45' W 092°06'  

Dump ship's entire track history